Time;durP1;ratioP1;P1;durP2;ratioP2;P2;SDS_P1;SDS_P2;PMS_P1;PMS_P2;Temp;Humidity;BMP_temperature;BMP_pressure;BME280_temperature;BME280_humidity;BME280_pressure;Samples;Min_cycle;Max_cycle;Signal;HPM_P1;HPM_P2
2021/12/16 00:03:46;;;;;;;13.37;8.77;;;7.80;99.90;;;;;;5070781;28;20196;-78
2021/12/16 00:09:00;;;;;;;12.23;8.00;;;7.90;99.90;;;;;;5071691;28;20173;-78
2021/12/16 00:33:32;;;;;;;10.30;7.03;;;7.80;99.90;;;;;;5070278;28;20218;-76
2021/12/16 00:35:58;;;;;;;11.07;6.53;;;7.60;99.90;;;;;;5070153;28;20185;-78
2021/12/16 00:38:24;;;;;;;9.90;7.33;;;7.80;99.90;;;;;;5071382;28;20176;-77
2021/12/16 00:40:50;;;;;;;9.43;7.00;;;7.50;99.90;;;;;;5069737;28;20191;-77
2021/12/16 00:43:32;;;;;;;9.57;6.97;;;7.60;99.90;;;;;;5071167;28;20172;-76
2021/12/16 00:54:10;;;;;;;9.63;7.10;;;7.70;99.90;;;;;;5055712;28;20204;-75
2021/12/16 00:56:55;;;;;;;9.93;7.27;;;7.70;99.90;;;;;;5070298;28;20171;-75
2021/12/16 00:59:22;;;;;;;10.83;7.57;;;7.50;99.90;;;;;;5070799;28;20247;-76
2021/12/16 01:02:01;;;;;;;11.63;7.53;;;7.50;99.90;;;;;;5069194;28;20187;-76
2021/12/16 01:33:40;;;;;;;11.90;7.50;;;7.70;99.90;;;;;;5069401;28;20218;-79
2021/12/16 01:35:25;;;;;;;7.67;6.17;;;7.60;99.90;;;;;;5029764;28;20185;-74
2021/12/16 01:51:04;;;;;;;7.53;5.43;;;7.50;99.90;;;;;;5052352;28;20211;-79
2021/12/16 01:54:25;;;;;;;7.77;6.00;;;7.50;99.90;;;;;;5069905;28;20263;-78
2021/12/16 01:59:04;;;;;;;9.13;5.83;;;7.50;99.90;;;;;;5070234;28;20160;-79
2021/12/16 02:01:33;;;;;;;10.00;6.53;;;7.60;99.90;;;;;;5052099;28;20184;-74
2021/12/16 02:04:28;;;;;;;9.20;6.77;;;7.70;99.90;;;;;;5036053;28;20183;-78
2021/12/16 02:09:44;;;;;;;10.07;6.43;;;7.80;99.90;;;;;;5068593;28;20179;-75
2021/12/16 02:34:19;;;;;;;13.63;8.57;;;7.80;99.90;;;;;;5073882;28;20536;-74
2021/12/16 02:36:42;;;;;;;12.63;8.50;;;7.80;99.90;;;;;;5073275;28;20527;-74
2021/12/16 02:39:28;;;;;;;10.93;7.53;;;7.90;99.90;;;;;;5056292;28;20255;-75
2021/12/16 02:42:06;;;;;;;12.20;8.23;;;7.80;99.90;;;;;;5072176;28;20270;-75
2021/12/16 02:50:03;;;;;;;11.03;7.87;;;7.80;99.90;;;;;;5071933;28;20259;-78
2021/12/16 02:52:29;;;;;;;10.13;7.53;;;7.70;99.90;;;;;;5072153;28;20226;-76
2021/12/16 02:54:56;;;;;;;9.03;6.93;;;7.70;99.90;;;;;;5067852;28;20177;-77
2021/12/16 02:57:24;;;;;;;10.00;7.33;;;7.80;99.90;;;;;;5073866;28;20236;-74
2021/12/16 02:59:52;;;;;;;11.80;7.77;;;7.90;99.90;;;;;;5085194;28;20172;-78
2021/12/16 03:02:19;;;;;;;10.23;7.50;;;7.90;99.90;;;;;;5073316;28;20172;-79
2021/12/16 03:04:49;;;;;;;11.70;7.63;;;7.80;99.90;;;;;;5038427;28;20651;-74
2021/12/16 03:07:17;;;;;;;11.23;7.47;;;7.70;99.90;;;;;;5054698;28;20181;-78
2021/12/16 03:10:26;;;;;;;10.90;7.60;;;7.80;99.90;;;;;;5072315;28;20223;-76
2021/12/16 03:20:35;;;;;;;10.17;6.87;;;7.70;99.90;;;;;;5054909;28;20734;-77
2021/12/16 03:23:22;;;;;;;11.40;7.00;;;7.70;99.90;;;;;;5081947;28;20196;-76
2021/12/16 03:28:50;;;;;;;10.80;6.73;;;7.70;99.90;;;;;;5036525;28;20177;-80
2021/12/16 03:36:31;;;;;;;8.20;5.97;;;7.60;99.90;;;;;;5073489;28;20161;-78
2021/12/16 03:39:08;;;;;;;10.53;7.00;;;7.70;99.90;;;;;;5039447;28;20183;-79
2021/12/16 03:41:34;;;;;;;9.43;6.47;;;7.80;99.90;;;;;;5072899;28;20168;-76
2021/12/16 03:44:06;;;;;;;10.40;6.90;;;7.80;99.90;;;;;;5055037;28;20183;-78
2021/12/16 03:46:38;;;;;;;10.93;7.83;;;7.90;99.90;;;;;;5055075;28;20176;-78
2021/12/16 03:49:10;;;;;;;9.97;7.40;;;7.90;99.90;;;;;;5073025;28;20246;-75
2021/12/16 03:51:47;;;;;;;10.60;6.93;;;7.90;99.90;;;;;;5072938;28;20667;-78
2021/12/16 03:54:15;;;;;;;11.27;7.33;;;7.80;99.90;;;;;;5071383;28;20529;-79
2021/12/16 03:56:42;;;;;;;12.80;7.90;;;7.90;99.90;;;;;;5071402;28;20991;-76
2021/12/16 03:59:10;;;;;;;11.77;7.80;;;7.90;99.90;;;;;;5072980;28;20163;-76
2021/12/16 04:01:37;;;;;;;10.90;7.30;;;7.90;99.90;;;;;;5072144;28;20184;-76
2021/12/16 04:04:04;;;;;;;11.47;7.13;;;8.00;99.90;;;;;;5054923;28;20599;-79
2021/12/16 04:06:33;;;;;;;9.20;6.53;;;7.70;99.90;;;;;;5071085;28;20177;-79
2021/12/16 04:08:59;;;;;;;11.00;7.27;;;7.70;99.90;;;;;;5054758;28;20248;-78
2021/12/16 04:11:38;;;;;;;10.73;7.07;;;7.60;99.90;;;;;;5071198;28;20223;-78
2021/12/16 04:14:05;;;;;;;12.00;7.33;;;7.50;99.90;;;;;;5070960;28;20242;-75
2021/12/16 04:16:53;;;;;;;10.20;7.40;;;7.60;99.90;;;;;;5053608;28;20196;-78
2021/12/16 04:19:22;;;;;;;11.53;7.63;;;7.70;99.90;;;;;;5071831;28;20176;-75
2021/12/16 04:21:57;;;;;;;9.97;6.90;;;7.50;99.90;;;;;;5053481;28;20180;-79
2021/12/16 04:24:23;;;;;;;13.10;7.97;;;7.40;99.90;;;;;;5070500;28;20184;-76
2021/12/16 04:26:52;;;;;;;11.53;7.43;;;7.60;99.90;;;;;;5053916;28;20176;-79
2021/12/16 04:29:19;;;;;;;12.53;7.63;;;7.60;99.90;;;;;;5054362;28;20226;-78
2021/12/16 04:31:45;;;;;;;11.53;7.30;;;7.70;99.90;;;;;;5070053;28;20200;-77
2021/12/16 04:34:12;;;;;;;12.33;7.93;;;7.80;99.90;;;;;;5070605;28;20165;-78
2021/12/16 04:36:39;;;;;;;11.53;8.20;;;7.90;99.90;;;;;;5070272;28;20264;-77
2021/12/16 04:39:14;;;;;;;11.80;7.47;;;7.80;99.90;;;;;;5071049;28;20714;-76
2021/12/16 04:41:42;;;;;;;11.07;7.30;;;7.80;99.90;;;;;;5070840;28;20927;-81
2021/12/16 04:44:11;;;;;;;11.60;7.90;;;7.90;99.90;;;;;;5054353;28;20187;-79
2021/12/16 04:46:40;;;;;;;10.73;7.30;;;7.70;99.90;;;;;;5071693;28;20173;-75
2021/12/16 04:49:08;;;;;;;9.93;7.23;;;7.50;99.90;;;;;;5054254;28;20229;-76
2021/12/16 04:51:38;;;;;;;12.47;7.73;;;7.50;99.90;;;;;;5053977;28;20212;-79
2021/12/16 04:54:05;;;;;;;12.57;7.87;;;7.50;99.90;;;;;;5070883;28;20168;-78
2021/12/16 04:56:31;;;;;;;13.83;8.37;;;7.60;99.90;;;;;;5038424;28;20184;-79
2021/12/16 04:58:58;;;;;;;13.93;9.13;;;7.50;99.90;;;;;;5070426;28;20263;-77
2021/12/16 05:01:25;;;;;;;12.40;8.37;;;7.50;99.90;;;;;;5070374;28;20177;-80
2021/12/16 05:03:51;;;;;;;14.47;8.20;;;7.50;99.90;;;;;;5053866;28;20204;-79
2021/12/16 05:06:17;;;;;;;12.37;8.53;;;7.60;99.90;;;;;;5037643;28;20184;-77
2021/12/16 05:08:44;;;;;;;14.07;8.80;;;7.80;99.90;;;;;;5054170;28;20200;-77
2021/12/16 05:11:14;;;;;;;14.17;8.80;;;7.70;99.90;;;;;;5053559;28;20200;-79
2021/12/16 05:13:41;;;;;;;15.83;9.20;;;7.80;99.90;;;;;;5054047;28;20183;-79
2021/12/16 05:16:07;;;;;;;14.63;9.07;;;7.80;99.90;;;;;;5052968;28;20591;-75
2021/12/16 05:18:36;;;;;;;14.67;9.23;;;7.80;99.90;;;;;;5070039;28;20168;-77
2021/12/16 05:21:42;;;;;;;15.40;9.67;;;7.90;99.90;;;;;;5071395;28;20173;-76
2021/12/16 05:24:27;;;;;;;15.20;9.10;;;7.80;99.90;;;;;;5053202;28;20255;-80
2021/12/16 05:27:03;;;;;;;13.97;9.30;;;7.90;99.90;;;;;;5070412;28;20171;-80
2021/12/16 05:29:29;;;;;;;18.57;10.03;;;7.90;99.90;;;;;;5070617;28;20620;-79
2021/12/16 05:31:55;;;;;;;16.93;9.67;;;7.90;99.90;;;;;;5070500;28;20275;-77
2021/12/16 05:34:22;;;;;;;16.13;9.60;;;7.90;99.90;;;;;;5071345;28;20251;-79
2021/12/16 05:36:48;;;;;;;19.83;10.30;;;8.00;99.90;;;;;;5069883;28;20188;-76
2021/12/16 05:39:16;;;;;;;17.97;10.00;;;7.90;99.90;;;;;;5050173;28;20179;-76
2021/12/16 05:41:42;;;;;;;17.33;9.53;;;7.90;99.90;;;;;;5049954;28;20223;-78
2021/12/16 05:44:08;;;;;;;15.37;9.07;;;7.90;99.90;;;;;;5050235;28;20170;-79
2021/12/16 05:46:35;;;;;;;16.27;9.97;;;7.90;99.90;;;;;;5060238;28;20241;-79
2021/12/16 05:49:04;;;;;;;16.87;9.23;;;7.90;99.90;;;;;;5051636;28;20299;-73
2021/12/16 05:51:32;;;;;;;16.13;9.80;;;7.90;99.90;;;;;;5067795;28;20204;-78
2021/12/16 05:54:00;;;;;;;14.80;9.70;;;7.80;99.90;;;;;;5068471;28;20172;-78
2021/12/16 05:56:26;;;;;;;15.13;9.20;;;7.80;99.90;;;;;;5035461;28;20592;-78
2021/12/16 05:58:53;;;;;;;16.10;8.80;;;7.90;99.90;;;;;;5070745;28;20268;-75
2021/12/16 06:01:32;;;;;;;14.13;8.87;;;7.80;99.90;;;;;;5052082;28;20180;-75
2021/12/16 06:04:00;;;;;;;18.13;9.47;;;7.90;99.90;;;;;;5052619;28;20253;-78
2021/12/16 06:06:27;;;;;;;14.13;8.63;;;7.90;99.90;;;;;;5068525;28;20556;-80
2021/12/16 06:08:54;;;;;;;16.73;9.17;;;8.00;99.90;;;;;;5034800;28;20234;-75
2021/12/16 06:11:26;;;;;;;16.20;9.17;;;7.80;99.90;;;;;;5067609;28;20284;-81
2021/12/16 06:27:35;;;;;;;14.43;8.53;;;7.90;99.90;;;;;;5055274;28;20176;-79
2021/12/16 06:30:07;;;;;;;14.67;8.50;;;7.80;99.90;;;;;;5052202;28;20267;-78
2021/12/16 06:32:33;;;;;;;15.03;8.53;;;7.90;99.90;;;;;;5068954;28;20284;-81
2021/12/16 06:34:59;;;;;;;16.33;9.03;;;7.80;99.90;;;;;;5086447;28;20804;-76
2021/12/16 06:37:25;;;;;;;14.73;8.33;;;7.90;99.90;;;;;;5084806;28;20271;-79
2021/12/16 06:39:52;;;;;;;13.93;8.03;;;7.90;99.90;;;;;;5066355;28;20623;-80
2021/12/16 06:42:18;;;;;;;14.27;8.70;;;7.80;99.90;;;;;;5049672;28;20180;-77
2021/12/16 06:44:51;;;;;;;13.40;8.73;;;7.80;99.90;;;;;;5069779;28;20193;-76
2021/12/16 06:47:22;;;;;;;14.40;7.83;;;7.80;99.90;;;;;;5076073;28;20233;-80
2021/12/16 06:49:51;;;;;;;12.67;7.60;;;7.80;99.90;;;;;;5071864;28;20275;-80
2021/12/16 06:52:20;;;;;;;15.70;8.30;;;7.80;99.90;;;;;;5068740;28;20212;-77
2021/12/16 06:57:39;;;;;;;16.00;8.70;;;7.90;99.90;;;;;;5066880;28;20275;-80
2021/12/16 07:00:16;;;;;;;14.27;8.73;;;7.90;99.90;;;;;;5071159;28;20251;-77
2021/12/16 07:05:17;;;;;;;15.23;8.97;;;7.90;99.90;;;;;;5070629;28;20188;-80
2021/12/16 07:07:44;;;;;;;15.27;9.30;;;7.90;99.90;;;;;;5054803;28;20212;-80
2021/12/16 07:10:12;;;;;;;14.77;9.40;;;7.90;99.90;;;;;;5070543;28;20263;-80
2021/12/16 07:12:39;;;;;;;16.13;9.07;;;8.00;99.90;;;;;;5073472;28;20279;-78
2021/12/16 07:15:12;;;;;;;14.20;9.07;;;7.90;99.90;;;;;;5054916;28;20596;-77
2021/12/16 07:17:40;;;;;;;13.70;8.50;;;7.80;99.90;;;;;;5054922;28;20177;-78
2021/12/16 07:20:10;;;;;;;16.57;8.83;;;7.70;99.90;;;;;;5070929;28;20196;-76
2021/12/16 07:22:38;;;;;;;18.63;10.03;;;7.80;99.90;;;;;;5070995;28;20259;-77
2021/12/16 07:25:06;;;;;;;13.80;8.47;;;7.90;99.90;;;;;;5065995;28;20185;-77
2021/12/16 07:27:36;;;;;;;15.53;9.33;;;8.00;99.90;;;;;;5071231;28;20797;-79
2021/12/16 07:30:11;;;;;;;15.40;8.80;;;8.00;99.90;;;;;;5052060;28;20612;-77
2021/12/16 07:32:37;;;;;;;20.87;9.80;;;8.00;99.90;;;;;;5055810;28;20298;-81
2021/12/16 07:35:08;;;;;;;16.73;9.13;;;8.00;99.90;;;;;;5072884;28;20179;-76
2021/12/16 07:37:34;;;;;;;14.87;8.70;;;7.80;99.90;;;;;;5071412;28;20180;-80
2021/12/16 07:40:06;;;;;;;16.60;8.90;;;7.90;99.90;;;;;;5051875;28;20172;-78
2021/12/16 07:42:43;;;;;;;12.87;7.47;;;7.80;99.90;;;;;;5071747;28;20211;-77
2021/12/16 07:45:10;;;;;;;15.60;7.63;;;7.80;99.90;;;;;;5069539;28;20183;-76
2021/12/16 07:47:36;;;;;;;12.97;7.80;;;7.90;99.90;;;;;;5071929;28;20191;-81
2021/12/16 07:50:03;;;;;;;14.30;8.60;;;8.00;99.90;;;;;;5071440;28;20252;-79
2021/12/16 07:52:28;;;;;;;15.13;7.83;;;8.00;99.90;;;;;;5054139;28;20208;-81
2021/12/16 07:54:54;;;;;;;16.90;8.70;;;8.00;99.90;;;;;;5072798;28;20184;-76
2021/12/16 07:57:20;;;;;;;16.57;9.13;;;8.10;99.90;;;;;;5053474;28;20777;-76
2021/12/16 07:59:47;;;;;;;16.13;8.87;;;8.10;99.90;;;;;;5073097;28;20254;-80
2021/12/16 08:02:14;;;;;;;13.97;8.53;;;8.20;99.90;;;;;;5053801;28;20184;-74
2021/12/16 08:04:44;;;;;;;13.73;8.40;;;8.20;99.90;;;;;;5051320;28;20188;-80
2021/12/16 08:07:14;;;;;;;16.37;8.63;;;8.20;99.90;;;;;;5070503;28;20180;-77
2021/12/16 08:09:41;;;;;;;14.50;8.30;;;8.10;99.90;;;;;;5070603;28;20498;-81
2021/12/16 08:12:10;;;;;;;14.33;8.13;;;8.20;99.90;;;;;;5054959;28;20737;-80
2021/12/16 08:14:36;;;;;;;13.93;8.60;;;8.30;99.90;;;;;;5072201;28;20261;-78
2021/12/16 08:17:02;;;;;;;14.23;8.20;;;8.30;99.90;;;;;;5087735;28;20180;-79
2021/12/16 08:19:28;;;;;;;14.93;7.77;;;8.20;99.90;;;;;;5087811;28;20230;-79
2021/12/16 08:21:54;;;;;;;17.17;8.43;;;8.20;99.90;;;;;;5071475;28;20180;-80
2021/12/16 08:24:20;;;;;;;14.90;8.07;;;8.20;99.90;;;;;;5072906;28;20230;-80
2021/12/16 08:26:48;;;;;;;14.60;8.57;;;8.10;99.90;;;;;;5067959;28;20180;-79
2021/12/16 08:29:15;;;;;;;12.43;7.97;;;8.00;99.90;;;;;;5071007;28;20187;-78
2021/12/16 08:31:41;;;;;;;13.60;7.70;;;8.00;99.90;;;;;;5087305;28;20230;-80
2021/12/16 08:34:07;;;;;;;12.77;7.77;;;8.10;99.90;;;;;;5088110;28;20200;-78
2021/12/16 08:36:34;;;;;;;12.40;7.50;;;8.20;99.90;;;;;;5071227;28;20771;-79
2021/12/16 08:39:04;;;;;;;12.10;7.97;;;8.40;99.90;;;;;;5057276;28;20211;-81
2021/12/16 08:41:33;;;;;;;11.33;7.53;;;8.50;99.90;;;;;;5022721;28;20207;-79
2021/12/16 08:44:01;;;;;;;13.53;8.10;;;8.60;99.90;;;;;;5055759;28;20188;-81
2021/12/16 08:46:30;;;;;;;12.90;7.53;;;8.40;99.90;;;;;;5054238;28;20180;-81
2021/12/16 08:48:58;;;;;;;11.30;6.87;;;8.50;99.90;;;;;;5054882;28;20184;-79
2021/12/16 08:51:29;;;;;;;11.33;6.93;;;8.30;99.90;;;;;;5038434;28;20205;-79
2021/12/16 08:53:55;;;;;;;12.23;6.87;;;8.50;99.90;;;;;;5053822;28;20677;-78
2021/12/16 08:56:21;;;;;;;12.57;7.30;;;8.50;99.90;;;;;;5053754;28;20192;-78
2021/12/16 08:58:47;;;;;;;11.43;7.50;;;8.50;99.90;;;;;;5053550;28;20276;-78
2021/12/16 09:01:22;;;;;;;13.77;8.60;;;8.50;99.90;;;;;;5036306;28;20644;-77
2021/12/16 09:03:50;;;;;;;13.93;7.80;;;8.70;99.90;;;;;;5058047;28;20638;-77
2021/12/16 09:06:16;;;;;;;14.67;7.80;;;8.80;99.90;;;;;;5086471;28;20179;-78
2021/12/16 09:08:42;;;;;;;13.73;7.97;;;8.80;99.90;;;;;;5053722;28;20270;-80
2021/12/16 09:11:10;;;;;;;12.23;8.10;;;8.80;99.90;;;;;;5053858;28;20169;-79
2021/12/16 09:13:40;;;;;;;13.90;8.20;;;8.80;99.90;;;;;;5053833;28;20168;-80
2021/12/16 09:16:10;;;;;;;11.93;7.37;;;8.70;99.90;;;;;;5034777;28;20798;-79
2021/12/16 09:18:41;;;;;;;15.13;8.53;;;8.70;99.90;;;;;;5053167;28;20513;-79
2021/12/16 09:21:13;;;;;;;14.47;7.63;;;8.80;99.90;;;;;;5086419;28;20169;-79
2021/12/16 09:23:41;;;;;;;11.87;7.33;;;8.80;99.90;;;;;;5037479;28;20187;-77
2021/12/16 09:26:07;;;;;;;12.47;7.87;;;8.80;99.90;;;;;;5072326;28;20171;-77
2021/12/16 09:28:33;;;;;;;12.02;7.95;;;8.80;99.90;;;;;;5069355;28;20790;-77
2021/12/16 09:31:00;;;;;;;14.17;8.23;;;8.80;99.90;;;;;;5085576;28;20529;-79
2021/12/16 09:33:27;;;;;;;14.77;7.77;;;8.70;99.90;;;;;;5068909;28;20207;-79
2021/12/16 09:35:57;;;;;;;13.10;7.37;;;8.70;99.90;;;;;;5069958;28;20181;-80
2021/12/16 09:38:23;;;;;;;12.70;8.10;;;8.80;99.90;;;;;;5069919;28;20180;-79
2021/12/16 09:40:54;;;;;;;15.45;10.38;;;8.90;99.90;;;;;;5050986;28;20500;-77
2021/12/16 09:43:27;;;;;;;15.73;7.90;;;8.90;99.90;;;;;;5036933;28;20196;-77
2021/12/16 09:45:55;;;;;;;13.03;8.27;;;9.00;99.90;;;;;;5069659;28;20187;-79
2021/12/16 09:48:22;;;;;;;14.07;8.27;;;9.00;99.90;;;;;;5070071;28;20556;-79
2021/12/16 09:50:48;;;;;;;15.50;7.60;;;9.00;99.90;;;;;;5069687;28;20195;-78
2021/12/16 09:53:14;;;;;;;13.30;7.50;;;8.90;99.90;;;;;;5052555;28;20218;-78
2021/12/16 09:55:40;;;;;;;11.53;7.20;;;8.40;99.90;;;;;;5069973;28;20184;-79
2021/12/16 09:58:06;;;;;;;12.73;7.30;;;7.90;99.90;;;;;;5053267;28;20193;-78
2021/12/16 10:00:33;;;;;;;11.67;7.13;;;8.30;99.90;;;;;;5069904;28;20195;-79
2021/12/16 10:03:01;;;;;;;13.73;8.03;;;8.60;99.90;;;;;;5069890;28;20184;-79
2021/12/16 10:05:28;;;;;;;12.63;7.73;;;8.80;99.90;;;;;;5067663;28;20283;-77
2021/12/16 10:07:54;;;;;;;13.03;7.57;;;8.90;99.90;;;;;;5052740;28;20177;-78
2021/12/16 10:10:24;;;;;;;14.40;7.83;;;8.90;99.90;;;;;;5066495;28;20184;-80
2021/12/16 10:12:54;;;;;;;13.03;7.53;;;9.00;99.90;;;;;;5071630;28;20204;-78
2021/12/16 10:18:07;;;;;;;14.40;8.63;;;8.60;99.90;;;;;;5083230;28;20192;-78
2021/12/16 10:20:40;;;;;;;12.33;7.73;;;8.70;99.90;;;;;;5070946;28;20237;-78
2021/12/16 10:23:13;;;;;;;14.30;8.00;;;8.90;99.90;;;;;;5052410;28;20188;-78
2021/12/16 10:25:43;;;;;;;14.27;7.77;;;9.00;99.90;;;;;;5058312;28;20286;-78
2021/12/16 10:28:29;;;;;;;14.53;8.37;;;9.10;99.90;;;;;;5086071;28;20241;-78
2021/12/16 10:31:03;;;;;;;14.50;8.00;;;9.20;99.90;;;;;;5050542;28;20521;-78
2021/12/16 10:33:58;;;;;;;11.97;7.93;;;9.10;99.90;;;;;;5066335;28;20200;-77
2021/12/16 10:36:26;;;;;;;14.77;7.90;;;9.10;99.90;;;;;;5055510;28;20186;-78
2021/12/16 10:39:17;;;;;;;12.23;7.67;;;9.00;99.90;;;;;;5039145;28;20319;-76
2021/12/16 10:41:59;;;;;;;12.87;7.93;;;9.00;99.90;;;;;;5048798;28;20192;-75
2021/12/16 10:44:33;;;;;;;14.80;8.53;;;9.00;99.90;;;;;;5072260;28;20184;-77
2021/12/16 10:47:00;;;;;;;15.70;8.70;;;9.10;99.90;;;;;;5065486;28;20189;-78
2021/12/16 10:49:33;;;;;;;14.13;7.70;;;9.10;99.90;;;;;;5070368;28;20198;-77
2021/12/16 10:52:05;;;;;;;12.87;8.03;;;9.10;99.90;;;;;;5088982;28;20239;-78
2021/12/16 10:54:41;;;;;;;12.93;8.17;;;9.10;99.90;;;;;;5040031;28;20237;-79
2021/12/16 10:57:20;;;;;;;14.13;7.93;;;8.90;99.90;;;;;;5036454;28;20177;-78
2021/12/16 11:00:10;;;;;;;15.10;8.07;;;9.10;99.90;;;;;;5051984;28;20937;-78
2021/12/16 11:02:39;;;;;;;17.17;8.93;;;9.10;99.90;;;;;;5084687;28;20173;-76
2021/12/16 11:05:19;;;;;;;13.93;7.43;;;9.00;99.90;;;;;;5077274;28;20176;-77
2021/12/16 11:07:55;;;;;;;15.00;7.67;;;9.00;99.90;;;;;;5071006;28;20188;-76
2021/12/16 11:10:28;;;;;;;16.00;7.77;;;9.10;99.90;;;;;;5070398;28;20188;-78
2021/12/16 11:13:02;;;;;;;13.73;8.33;;;9.20;99.90;;;;;;5062794;28;20216;-76
2021/12/16 11:15:35;;;;;;;13.80;7.60;;;9.10;99.90;;;;;;5072664;28;20204;-77
2021/12/16 11:18:21;;;;;;;14.87;8.70;;;9.10;99.90;;;;;;5072308;28;20187;-80
2021/12/16 11:20:52;;;;;;;14.67;8.47;;;9.00;99.90;;;;;;5045119;28;20180;-78
2021/12/16 11:23:40;;;;;;;15.40;8.37;;;9.00;99.90;;;;;;5078987;28;20184;-77
2021/12/16 11:26:11;;;;;;;15.00;8.17;;;8.90;99.90;;;;;;5077192;28;20172;-78
2021/12/16 11:28:53;;;;;;;14.03;7.97;;;8.90;99.90;;;;;;5071666;28;20547;-78
2021/12/16 11:31:26;;;;;;;14.83;8.40;;;9.00;99.90;;;;;;5062394;28;20572;-78
2021/12/16 11:34:11;;;;;;;12.10;7.77;;;9.00;99.90;;;;;;5088833;28;20639;-79
2021/12/16 11:36:46;;;;;;;13.73;8.47;;;9.00;99.90;;;;;;5072200;28;20192;-79
2021/12/16 11:39:18;;;;;;;13.50;7.63;;;9.00;99.90;;;;;;5072625;28;20244;-79
2021/12/16 11:41:53;;;;;;;13.03;7.27;;;9.00;99.90;;;;;;5051529;28;20221;-78
2021/12/16 11:44:26;;;;;;;13.40;7.87;;;9.00;99.90;;;;;;5071774;28;20188;-80
2021/12/16 11:46:55;;;;;;;13.37;8.40;;;9.00;99.90;;;;;;5072669;28;20184;-78
2021/12/16 11:49:28;;;;;;;14.07;8.33;;;9.00;99.90;;;;;;5056379;28;20221;-79
2021/12/16 11:52:02;;;;;;;13.20;7.60;;;9.00;99.90;;;;;;5085635;28;20228;-81
2021/12/16 11:54:34;;;;;;;14.03;7.43;;;8.90;99.90;;;;;;5056565;28;20176;-81
2021/12/16 11:57:13;;;;;;;14.87;8.43;;;8.70;99.90;;;;;;5068925;28;20210;-81
2021/12/16 11:59:44;;;;;;;12.93;7.67;;;8.70;99.90;;;;;;5072439;28;20176;-81
2021/12/16 12:02:41;;;;;;;14.37;8.33;;;8.60;99.90;;;;;;5055623;28;20195;-80
2021/12/16 12:05:26;;;;;;;13.20;7.70;;;8.80;99.90;;;;;;5071534;28;20268;-77
2021/12/16 12:08:16;;;;;;;12.90;7.70;;;8.90;99.90;;;;;;5074222;28;20173;-80
2021/12/16 12:10:50;;;;;;;14.50;8.50;;;9.00;99.90;;;;;;5057035;28;20267;-78
2021/12/16 12:13:17;;;;;;;13.97;7.53;;;9.00;99.90;;;;;;5072350;28;20707;-80
2021/12/16 12:16:05;;;;;;;13.60;7.77;;;9.10;99.90;;;;;;5073021;28;20197;-77
2021/12/16 12:18:39;;;;;;;12.97;8.03;;;9.10;99.90;;;;;;5058874;28;20169;-76
2021/12/16 12:21:30;;;;;;;13.57;8.40;;;9.10;99.90;;;;;;5056817;28;20182;-77
2021/12/16 12:24:01;;;;;;;14.57;8.27;;;9.10;99.90;;;;;;5057375;28;20179;-79
2021/12/16 12:26:29;;;;;;;12.93;7.70;;;9.10;99.90;;;;;;5069435;28;20172;-80
2021/12/16 12:29:12;;;;;;;13.20;8.03;;;9.20;99.90;;;;;;5069916;28;20176;-77
2021/12/16 12:31:43;;;;;;;14.17;7.90;;;9.20;99.90;;;;;;5053294;28;20271;-77
2021/12/16 12:34:10;;;;;;;15.47;8.20;;;9.20;99.90;;;;;;5071398;28;20173;-77
2021/12/16 12:36:39;;;;;;;14.23;8.60;;;9.20;99.90;;;;;;5071844;28;20230;-78
2021/12/16 12:39:08;;;;;;;15.20;8.17;;;9.40;99.90;;;;;;5070127;28;20183;-75
2021/12/16 12:41:34;;;;;;;16.33;8.27;;;9.30;99.90;;;;;;5054431;28;20173;-76
2021/12/16 12:44:04;;;;;;;13.83;7.83;;;9.20;99.90;;;;;;5069992;28;20181;-76
2021/12/16 12:46:32;;;;;;;14.50;8.43;;;9.20;99.90;;;;;;5054027;28;20180;-76
2021/12/16 12:49:03;;;;;;;12.97;8.03;;;9.20;99.90;;;;;;5057194;28;20184;-77
2021/12/16 12:51:37;;;;;;;12.67;7.90;;;9.30;99.90;;;;;;5053125;28;20181;-79
2021/12/16 12:54:24;;;;;;;13.77;8.13;;;9.10;99.90;;;;;;5087056;28;20176;-78
2021/12/16 12:56:52;;;;;;;16.00;7.63;;;9.20;99.90;;;;;;5070166;28;20172;-78
2021/12/16 12:59:19;;;;;;;16.30;8.87;;;9.30;99.90;;;;;;5052768;28;20234;-79
2021/12/16 13:01:54;;;;;;;17.53;9.13;;;9.40;99.90;;;;;;5070859;28;20219;-81
2021/12/16 13:04:26;;;;;;;14.23;8.60;;;9.50;99.90;;;;;;5055426;28;20203;-80
2021/12/16 13:06:59;;;;;;;14.77;9.03;;;9.50;99.90;;;;;;5070198;28;20180;-81
2021/12/16 13:09:32;;;;;;;15.67;8.67;;;9.50;99.90;;;;;;5086926;28;20242;-82
2021/12/16 13:12:00;;;;;;;15.27;8.10;;;9.40;99.90;;;;;;5069822;28;20219;-82
2021/12/16 13:14:44;;;;;;;14.70;8.10;;;9.50;99.90;;;;;;5060283;28;20188;-79
2021/12/16 13:28:27;;;;;;;12.40;8.03;;;9.40;99.90;;;;;;5070359;28;20176;-80
2021/12/16 13:31:05;;;;;;;13.17;7.60;;;9.40;99.90;;;;;;5068772;28;20198;-82
2021/12/16 13:33:52;;;;;;;16.60;7.77;;;9.50;99.90;;;;;;5050870;28;20227;-82
2021/12/16 13:36:28;;;;;;;12.73;7.90;;;9.40;99.90;;;;;;5069138;28;20254;-81
2021/12/16 13:38:55;;;;;;;12.23;7.47;;;9.50;99.90;;;;;;5052034;28;20237;-81
2021/12/16 13:41:25;;;;;;;13.43;7.93;;;9.50;99.90;;;;;;5067152;28;20175;-80
2021/12/16 13:44:13;;;;;;;11.23;7.17;;;9.40;99.90;;;;;;5068008;28;20191;-80
2021/12/16 14:04:41;;;;;;;13.87;8.00;;;9.40;99.90;;;;;;5066793;28;20199;-78
2021/12/16 14:06:56;;;;;;;15.33;7.63;;;9.40;99.90;;;;;;5038852;28;20279;-77
2021/12/16 14:09:29;;;;;;;14.38;8.63;;;9.40;99.90;;;;;;5071187;28;20418;-79
2021/12/16 14:17:50;;;;;;;12.60;7.47;;;9.20;99.90;;;;;;5072286;28;20168;-77
2021/12/16 14:23:56;;;;;;;13.00;7.73;;;9.20;99.90;;;;;;5058884;28;20199;-79
2021/12/16 14:26:40;;;;;;;11.90;7.20;;;8.90;99.90;;;;;;5073675;28;20177;-77
2021/12/16 14:37:49;;;;;;;10.30;6.67;;;8.90;99.90;;;;;;4964964;28;20175;-78
2021/12/16 14:43:18;;;;;;;10.13;6.37;;;9.10;99.90;;;;;;5007305;28;20185;-79
2021/12/16 14:45:54;;;;;;;15.20;8.00;;;9.20;99.90;;;;;;5056774;28;20200;-77
2021/12/16 14:50:50;;;;;;;10.37;6.83;;;9.20;99.90;;;;;;5074166;28;20169;-78
2021/12/16 14:53:34;;;;;;;12.03;7.47;;;9.00;99.90;;;;;;5073563;28;20287;-78
2021/12/16 14:56:06;;;;;;;9.87;6.53;;;8.90;99.90;;;;;;5052691;28;20175;-77
2021/12/16 14:58:33;;;;;;;10.90;6.87;;;9.10;99.90;;;;;;5072347;28;20661;-78
2021/12/16 15:01:07;;;;;;;13.27;6.97;;;9.30;99.90;;;;;;5074050;28;20234;-81
2021/12/16 15:03:38;;;;;;;11.23;6.70;;;9.40;99.90;;;;;;5072006;28;20230;-79
2021/12/16 15:06:16;;;;;;;11.87;7.07;;;9.20;99.90;;;;;;5056131;28;20225;-78
2021/12/16 15:11:24;;;;;;;13.67;7.23;;;9.30;99.90;;;;;;5071932;28;20176;-78
2021/12/16 15:13:56;;;;;;;11.53;7.63;;;9.30;99.90;;;;;;5071824;28;20263;-82
2021/12/16 15:36:41;;;;;;;12.07;7.00;;;8.90;99.90;;;;;;5070566;28;20181;-78
2021/12/16 15:43:56;;;;;;;14.03;8.53;;;8.80;99.90;;;;;;5071817;28;20628;-81
2021/12/16 15:46:27;;;;;;;12.50;7.70;;;8.90;99.90;;;;;;5053553;28;20169;-80
2021/12/16 15:48:54;;;;;;;14.37;7.70;;;8.90;99.90;;;;;;5069757;28;20682;-77
2021/12/16 15:51:23;;;;;;;14.33;8.30;;;8.80;99.90;;;;;;5053342;28;20176;-78
2021/12/16 15:53:55;;;;;;;11.07;7.33;;;8.60;99.90;;;;;;5070997;28;20300;-76
2021/12/16 15:56:28;;;;;;;11.53;7.77;;;8.60;99.90;;;;;;5070292;28;20537;-80
2021/12/16 15:59:16;;;;;;;12.13;7.90;;;8.40;99.90;;;;;;5053616;28;20203;-79
2021/12/16 16:01:49;;;;;;;12.67;8.33;;;8.50;99.90;;;;;;5071126;28;20184;-76
2021/12/16 16:04:28;;;;;;;13.43;7.70;;;8.70;99.90;;;;;;5070624;28;20700;-77
2021/12/16 16:06:57;;;;;;;11.67;7.77;;;8.70;99.90;;;;;;5038197;28;20184;-77
2021/12/16 16:09:27;;;;;;;10.00;7.33;;;8.70;99.90;;;;;;5071138;28;20169;-79
2021/12/16 16:11:55;;;;;;;11.23;7.73;;;8.60;99.90;;;;;;5054578;28;20252;-80
2021/12/16 16:14:23;;;;;;;12.20;7.63;;;8.60;99.90;;;;;;5053762;28;20200;-80
2021/12/16 16:16:53;;;;;;;11.77;7.23;;;8.60;99.90;;;;;;5072303;28;20243;-77
2021/12/16 16:19:35;;;;;;;12.73;8.00;;;8.50;99.90;;;;;;5038099;28;20233;-79
2021/12/16 16:22:03;;;;;;;13.53;7.63;;;8.60;99.90;;;;;;5054744;28;20175;-78
2021/12/16 16:24:36;;;;;;;14.37;8.10;;;8.70;99.90;;;;;;5054075;28;20172;-78
2021/12/16 16:27:07;;;;;;;14.30;8.47;;;8.70;99.90;;;;;;5070846;28;20176;-79
2021/12/16 16:29:34;;;;;;;14.20;8.43;;;8.70;99.90;;;;;;5053815;28;20556;-78
2021/12/16 16:32:01;;;;;;;10.63;7.13;;;8.20;99.90;;;;;;5068837;28;20207;-79
2021/12/16 16:34:31;;;;;;;10.77;7.40;;;8.30;99.90;;;;;;5034721;28;20260;-78
2021/12/16 16:37:04;;;;;;;10.00;6.20;;;8.40;99.90;;;;;;5068023;28;20545;-80
2021/12/16 16:39:40;;;;;;;9.87;6.20;;;8.30;99.90;;;;;;5072253;28;20846;-81
2021/12/16 16:42:12;;;;;;;7.60;5.90;;;8.40;99.90;;;;;;5055117;28;20180;-81
2021/12/16 16:44:39;;;;;;;12.03;6.40;;;8.50;99.90;;;;;;5054681;28;20188;-80
2021/12/16 16:47:14;;;;;;;17.00;6.80;;;8.40;99.90;;;;;;5054622;28;20215;-79
2021/12/16 16:49:51;;;;;;;10.10;6.07;;;8.50;99.90;;;;;;5071776;28;20168;-80
2021/12/16 16:52:21;;;;;;;9.27;6.20;;;8.40;99.90;;;;;;5038478;28;20196;-78
2021/12/16 16:55:39;;;;;;;11.77;6.20;;;8.10;99.90;;;;;;5051577;28;20188;-80
2021/12/16 16:58:14;;;;;;;23.17;10.83;;;8.30;99.90;;;;;;5062960;28;20207;-80